Time;durP1;ratioP1;P1;durP2;ratioP2;P2;SDS_P1;SDS_P2;PMS_P1;PMS_P2;Temp;Humidity;BMP_temperature;BMP_pressure;BME280_temperature;BME280_humidity;BME280_pressure;Samples;Min_cycle;Max_cycle;Signal;HPM_P1;HPM_P2
2023/07/21 00:00:15;;;;;;;10.70;4.90;;;;;;;;;;107557;1251;61120;-78
2023/07/21 00:03:01;;;;;;;8.80;5.40;;;;;;;;;;107597;1249;61219;-79
2023/07/21 00:05:28;;;;;;;6.40;4.40;;;;;;;;;;106896;1253;61439;-78
2023/07/21 00:07:55;;;;;;;6.50;4.90;;;;;;;;;;106860;1251;61350;-78
2023/07/21 00:10:22;;;;;;;10.20;5.30;;;;;;;;;;106913;1250;61330;-79
2023/07/21 00:12:48;;;;;;;7.90;4.60;;;;;;;;;;107093;1249;61258;-78
2023/07/21 00:15:18;;;;;;;5.90;4.30;;;;;;;;;;109880;1249;58859;-79
2023/07/21 00:17:46;;;;;;;6.20;4.30;;;;;;;;;;107598;1250;60096;-78
2023/07/21 00:20:15;;;;;;;8.20;4.60;;;;;;;;;;106857;1250;61216;-78
2023/07/21 00:22:41;;;;;;;6.60;4.60;;;;;;;;;;106896;1253;61120;-78
2023/07/21 00:25:10;;;;;;;5.30;4.20;;;;;;;;;;106887;1252;61092;-79
2023/07/21 00:27:37;;;;;;;;;;;;;;;;;;106906;1253;61120;-78
2023/07/21 00:30:07;;;;;;;8.30;4.60;;;;;;;;;;109891;1249;58831;-78
2023/07/21 00:32:36;;;;;;;8.50;5.20;;;;;;;;;;109812;1250;58786;-79
2023/07/21 00:35:10;;;;;;;6.90;5.00;;;;;;;;;;109784;1250;58902;-79
2023/07/21 00:37:36;;;;;;;6.90;5.20;;;;;;;;;;109786;1251;59059;-79
2023/07/21 00:40:04;;;;;;;8.40;6.30;;;;;;;;;;109318;1251;58923;-78
2023/07/21 00:42:30;;;;;;;8.80;5.50;;;;;;;;;;106831;1251;61265;-78
2023/07/21 00:44:57;;;;;;;7.30;5.20;;;;;;;;;;109611;1251;58792;-79
2023/07/21 00:47:23;;;;;;;7.60;4.70;;;;;;;;;;109806;1251;58906;-79
2023/07/21 00:49:50;;;;;;;5.00;4.10;;;;;;;;;;107410;1254;61162;-78
2023/07/21 00:52:18;;;;;;;5.70;4.40;;;;;;;;;;106834;1254;61246;-78
2023/07/21 00:54:45;;;;;;;5.10;4.10;;;;;;;;;;106840;1251;61285;-78
2023/07/21 00:57:11;;;;;;;6.70;4.40;;;;;;;;;;106797;1254;61285;-79
2023/07/21 00:59:38;;;;;;;8.50;5.10;;;;;;;;;;109248;1251;61149;-79
2023/07/21 01:02:05;;;;;;;6.80;4.40;;;;;;;;;;108332;1251;60433;-79
2023/07/21 01:04:31;;;;;;;7.00;4.20;;;;;;;;;;106820;1251;61329;-79
2023/07/21 01:06:58;;;;;;;7.60;4.90;;;;;;;;;;106827;1252;61373;-79
2023/07/21 01:09:27;;;;;;;5.10;4.00;;;;;;;;;;108977;1251;59127;-79
2023/07/21 01:11:54;;;;;;;8.50;4.90;;;;;;;;;;109794;1249;58814;-78
2023/07/21 01:14:21;;;;;;;5.20;4.30;;;;;;;;;;109976;1249;59960;-79
2023/07/21 01:16:47;;;;;;;9.00;4.90;;;;;;;;;;109963;1249;59059;-78
2023/07/21 01:19:14;;;;;;;7.30;4.20;;;;;;;;;;109061;1250;61280;-78
2023/07/21 01:21:59;;;;;;;7.30;3.90;;;;;;;;;;106832;1249;61213;-79
2023/07/21 01:24:26;;;;;;;6.30;3.90;;;;;;;;;;109907;1250;59035;-78
2023/07/21 01:26:52;;;;;;;7.40;4.20;;;;;;;;;;109894;1249;59004;-78
2023/07/21 01:29:18;;;;;;;7.50;3.90;;;;;;;;;;109874;1250;58843;-78
2023/07/21 01:31:45;;;;;;;5.10;4.10;;;;;;;;;;109951;1249;58938;-78
2023/07/21 01:34:11;;;;;;;7.50;4.60;;;;;;;;;;109889;1250;59140;-78
2023/07/21 01:36:38;;;;;;;8.70;4.20;;;;;;;;;;107047;1254;61144;-77
2023/07/21 01:39:04;;;;;;;6.90;4.10;;;;;;;;;;106868;1255;61412;-78
2023/07/21 01:41:30;;;;;;;6.90;3.70;;;;;;;;;;106886;1254;61396;-78
2023/07/21 01:43:57;;;;;;;6.70;4.50;;;;;;;;;;108520;1249;59959;-78
2023/07/21 01:46:23;;;;;;;8.50;4.80;;;;;;;;;;109910;1249;58820;-78
2023/07/21 01:48:49;;;;;;;8.00;3.70;;;;;;;;;;109063;1250;59269;-78
2023/07/21 01:51:16;;;;;;;9.70;4.00;;;;;;;;;;106905;1249;61350;-78
2023/07/21 01:53:42;;;;;;;4.80;3.80;;;;;;;;;;106980;1250;61359;-80
2023/07/21 01:56:09;;;;;;;7.30;5.00;;;;;;;;;;106864;1250;61363;-79
2023/07/21 01:58:36;;;;;;;6.40;4.30;;;;;;;;;;108055;1249;61193;-80
2023/07/21 02:01:02;;;;;;;5.50;4.20;;;;;;;;;;109827;1249;59194;-77
2023/07/21 02:03:28;;;;;;;7.20;4.50;;;;;;;;;;109838;1249;59186;-77
2023/07/21 02:05:55;;;;;;;5.50;4.80;;;;;;;;;;109819;1251;59468;-77
2023/07/21 02:08:21;;;;;;;8.30;6.20;;;;;;;;;;109530;1250;59279;-77
2023/07/21 02:10:48;;;;;;;9.40;6.10;;;;;;;;;;106846;1255;61238;-81
2023/07/21 02:13:15;;;;;;;10.60;6.30;;;;;;;;;;107104;1253;60254;-79
2023/07/21 02:15:41;;;;;;;9.30;5.60;;;;;;;;;;107066;1251;61244;-79
2023/07/21 02:18:08;;;;;;;6.10;5.20;;;;;;;;;;107134;1250;61247;-79
2023/07/21 02:20:34;;;;;;;5.90;4.70;;;;;;;;;;107064;1251;61313;-79
2023/07/21 02:23:01;;;;;;;8.50;5.20;;;;;;;;;;107482;1250;61288;-79
2023/07/21 02:25:27;;;;;;;8.70;5.30;;;;;;;;;;107713;1249;62269;-79
2023/07/21 02:27:54;;;;;;;7.00;5.50;;;;;;;;;;107754;1251;61119;-79
2023/07/21 02:30:20;;;;;;;7.90;6.30;;;;;;;;;;107716;1252;61330;-79
2023/07/21 02:32:47;;;;;;;7.30;5.50;;;;;;;;;;107552;1250;61286;-79
2023/07/21 02:35:13;;;;;;;7.80;6.80;;;;;;;;;;107506;1253;61314;-79
2023/07/21 02:37:39;;;;;;;8.50;5.50;;;;;;;;;;107436;1251;61201;-79
2023/07/21 02:40:06;;;;;;;12.60;6.20;;;;;;;;;;107508;1249;61309;-79
2023/07/21 02:42:33;;;;;;;9.10;5.70;;;;;;;;;;107553;1250;61268;-79
2023/07/21 02:44:59;;;;;;;9.10;5.80;;;;;;;;;;109839;1250;58811;-79
2023/07/21 02:47:26;;;;;;;7.30;5.90;;;;;;;;;;109911;1250;59097;-79
2023/07/21 02:49:53;;;;;;;10.60;6.10;;;;;;;;;;109802;1249;59117;-79
2023/07/21 02:52:19;;;;;;;8.80;5.90;;;;;;;;;;109939;1249;60079;-80
2023/07/21 02:54:45;;;;;;;8.00;6.20;;;;;;;;;;107481;1250;61242;-79
2023/07/21 02:57:12;;;;;;;9.40;6.20;;;;;;;;;;107483;1250;61235;-79
2023/07/21 02:59:38;;;;;;;7.60;6.10;;;;;;;;;;109325;1249;59015;-79
2023/07/21 03:02:05;;;;;;;6.10;4.50;;;;;;;;;;107035;1250;61306;-79
2023/07/21 03:04:32;;;;;;;8.90;5.10;;;;;;;;;;108250;1250;59959;-79
2023/07/21 03:06:58;;;;;;;8.90;5.50;;;;;;;;;;106865;1255;61340;-79
2023/07/21 03:09:25;;;;;;;8.40;4.40;;;;;;;;;;109115;1249;61231;-80
2023/07/21 03:11:51;;;;;;;6.40;4.10;;;;;;;;;;110032;1249;58856;-79
2023/07/21 03:14:17;;;;;;;6.80;4.60;;;;;;;;;;110083;1249;58845;-79
2023/07/21 03:16:44;;;;;;;8.00;4.40;;;;;;;;;;109980;1249;59178;-80
2023/07/21 03:19:10;;;;;;;6.30;4.30;;;;;;;;;;110101;1249;58816;-80
2023/07/21 03:21:37;;;;;;;6.10;4.10;;;;;;;;;;110074;1250;59161;-80
2023/07/21 03:24:03;;;;;;;5.70;3.90;;;;;;;;;;110126;1251;58906;-79
2023/07/21 03:26:29;;;;;;;9.50;4.30;;;;;;;;;;110112;1251;58913;-79
2023/07/21 03:28:56;;;;;;;7.70;5.00;;;;;;;;;;110119;1250;58827;-80
2023/07/21 03:31:22;;;;;;;6.80;5.10;;;;;;;;;;110080;1249;58963;-79
2023/07/21 03:33:49;;;;;;;6.50;4.90;;;;;;;;;;109920;1249;58852;-79
2023/07/21 03:36:16;;;;;;;6.30;4.40;;;;;;;;;;109918;1250;59096;-79
2023/07/21 03:38:42;;;;;;;10.20;4.40;;;;;;;;;;109861;1249;58876;-79
2023/07/21 03:41:09;;;;;;;5.40;4.20;;;;;;;;;;109906;1250;59491;-79
2023/07/21 03:43:36;;;;;;;9.90;4.60;;;;;;;;;;109918;1249;59176;-79
2023/07/21 03:46:03;;;;;;;6.80;4.90;;;;;;;;;;109904;1249;59127;-80
2023/07/21 03:48:30;;;;;;;4.70;3.70;;;;;;;;;;109871;1250;59072;-79
2023/07/21 03:50:57;;;;;;;7.50;4.60;;;;;;;;;;109925;1249;58917;-77
2023/07/21 03:53:24;;;;;;;8.50;3.90;;;;;;;;;;109925;1250;60900;-77
2023/07/21 03:55:50;;;;;;;4.30;3.40;;;;;;;;;;109895;1249;58893;-77
2023/07/21 03:58:17;;;;;;;5.90;3.80;;;;;;;;;;109916;1250;59117;-77
2023/07/21 04:00:43;;;;;;;5.20;3.80;;;;;;;;;;109898;1249;58929;-77
2023/07/21 04:03:10;;;;;;;5.20;4.00;;;;;;;;;;109896;1249;58941;-77
2023/07/21 04:05:37;;;;;;;4.40;3.50;;;;;;;;;;109947;1249;60338;-77
2023/07/21 04:08:03;;;;;;;4.70;4.20;;;;;;;;;;109911;1249;58846;-77
2023/07/21 04:10:32;;;;;;;6.60;4.40;;;;;;;;;;109883;1253;59001;-77
2023/07/21 04:12:59;;;;;;;6.50;5.60;;;;;;;;;;110091;1250;59161;-77
2023/07/21 04:15:26;;;;;;;9.90;4.40;;;;;;;;;;110127;1249;58900;-77
2023/07/21 04:17:52;;;;;;;7.60;4.60;;;;;;;;;;108185;1251;61221;-77
2023/07/21 04:20:19;;;;;;;6.90;4.00;;;;;;;;;;106949;1255;61142;-79
2023/07/21 04:22:45;;;;;;;7.70;4.00;;;;;;;;;;107169;1249;61310;-78
2023/07/21 04:25:12;;;;;;;6.40;3.90;;;;;;;;;;107165;1250;61320;-78
2023/07/21 04:27:38;;;;;;;4.60;3.60;;;;;;;;;;107164;1251;61313;-78
2023/07/21 04:30:05;;;;;;;8.40;3.90;;;;;;;;;;107061;1253;61208;-78
2023/07/21 04:32:31;;;;;;;5.30;3.90;;;;;;;;;;106908;1253;61305;-79
2023/07/21 04:34:57;;;;;;;4.90;3.70;;;;;;;;;;106878;1255;61918;-78
2023/07/21 04:37:25;;;;;;;7.80;3.90;;;;;;;;;;106823;1250;61265;-80
2023/07/21 04:39:52;;;;;;;6.60;4.00;;;;;;;;;;109895;1249;58966;-77
2023/07/21 04:42:18;;;;;;;5.90;4.00;;;;;;;;;;109899;1249;59128;-77
2023/07/21 04:44:44;;;;;;;6.40;3.70;;;;;;;;;;109916;1249;58872;-77
2023/07/21 04:47:11;;;;;;;6.90;4.10;;;;;;;;;;107958;1250;61220;-78
2023/07/21 04:49:37;;;;;;;5.80;4.20;;;;;;;;;;106903;1254;61184;-79
2023/07/21 04:52:04;;;;;;;6.70;4.00;;;;;;;;;;106869;1249;61216;-79
2023/07/21 04:54:30;;;;;;;7.10;4.50;;;;;;;;;;106901;1250;61320;-78
2023/07/21 04:56:56;;;;;;;5.20;4.70;;;;;;;;;;106841;1254;61238;-79
2023/07/21 04:59:23;;;;;;;11.90;4.30;;;;;;;;;;106834;1249;61323;-78
2023/07/21 05:01:50;;;;;;;6.20;4.10;;;;;;;;;;106861;1250;61285;-79
2023/07/21 05:04:19;;;;;;;8.80;5.10;;;;;;;;;;106866;1251;61293;-78
2023/07/21 05:06:49;;;;;;;10.20;6.00;;;;;;;;;;106856;1254;61122;-78
2023/07/21 05:09:15;;;;;;;9.80;5.60;;;;;;;;;;106919;1253;61173;-78
2023/07/21 05:11:42;;;;;;;8.20;6.70;;;;;;;;;;106955;1251;61325;-78
2023/07/21 05:14:08;;;;;;;8.70;6.30;;;;;;;;;;107053;1250;61286;-78
2023/07/21 05:16:37;;;;;;;12.80;6.30;;;;;;;;;;106936;1250;61221;-79
2023/07/21 05:19:04;;;;;;;8.10;4.90;;;;;;;;;;106899;1255;61227;-79
2023/07/21 05:21:30;;;;;;;8.60;5.00;;;;;;;;;;106936;1248;61282;-78
2023/07/21 05:23:57;;;;;;;7.10;4.80;;;;;;;;;;106816;1251;61256;-78
2023/07/21 05:26:23;;;;;;;12.90;5.30;;;;;;;;;;106970;1250;61260;-79
2023/07/21 05:28:50;;;;;;;10.40;5.40;;;;;;;;;;106929;1253;61231;-79
2023/07/21 05:31:16;;;;;;;9.70;5.20;;;;;;;;;;106911;1254;61270;-79
2023/07/21 05:33:43;;;;;;;7.90;6.00;;;;;;;;;;106911;1251;61327;-79
2023/07/21 05:36:12;;;;;;;7.10;4.90;;;;;;;;;;106862;1253;61368;-79
2023/07/21 05:38:38;;;;;;;7.50;5.00;;;;;;;;;;106869;1249;62576;-78
2023/07/21 05:41:05;;;;;;;8.50;5.00;;;;;;;;;;106868;1254;61254;-78
2023/07/21 05:43:31;;;;;;;6.50;5.10;;;;;;;;;;106964;1250;61238;-78
2023/07/21 05:45:58;;;;;;;5.60;4.90;;;;;;;;;;106905;1249;61282;-78
2023/07/21 05:48:24;;;;;;;9.90;4.90;;;;;;;;;;106874;1253;61328;-79
2023/07/21 05:50:51;;;;;;;6.60;4.70;;;;;;;;;;106885;1255;61190;-78
2023/07/21 05:53:19;;;;;;;5.50;4.40;;;;;;;;;;106929;1250;59437;-78
2023/07/21 05:55:46;;;;;;;9.50;5.20;;;;;;;;;;107043;1253;61230;-79
2023/07/21 05:58:12;;;;;;;6.70;4.80;;;;;;;;;;107116;1251;61223;-78
2023/07/21 06:00:39;;;;;;;7.50;5.20;;;;;;;;;;106882;1250;61334;-78
2023/07/21 06:03:05;;;;;;;10.70;6.00;;;;;;;;;;106864;1251;61319;-78
2023/07/21 06:05:32;;;;;;;9.10;5.50;;;;;;;;;;106823;1254;61250;-78
2023/07/21 06:07:59;;;;;;;9.10;5.70;;;;;;;;;;106836;1249;61276;-78
2023/07/21 06:10:25;;;;;;;7.70;5.20;;;;;;;;;;106813;1256;61147;-79
2023/07/21 06:12:51;;;;;;;11.60;5.10;;;;;;;;;;107061;1251;63510;-78
2023/07/21 06:15:18;;;;;;;7.80;4.40;;;;;;;;;;106957;1250;61333;-79
2023/07/21 06:17:44;;;;;;;6.70;4.30;;;;;;;;;;106886;1250;61254;-78
2023/07/21 06:20:12;;;;;;;8.20;4.60;;;;;;;;;;106827;1249;61345;-78
2023/07/21 06:22:38;;;;;;;5.10;4.60;;;;;;;;;;107531;1254;61180;-79
2023/07/21 06:25:05;;;;;;;7.20;5.10;;;;;;;;;;109654;1254;58987;-78
2023/07/21 06:27:31;;;;;;;7.80;4.50;;;;;;;;;;107006;1251;59581;-78
2023/07/21 06:29:58;;;;;;;6.80;4.40;;;;;;;;;;107074;1255;61209;-78
2023/07/21 06:32:24;;;;;;;6.70;4.70;;;;;;;;;;109412;1249;59985;-79
2023/07/21 06:34:50;;;;;;;7.30;4.60;;;;;;;;;;107824;1253;61274;-78
2023/07/21 06:37:17;;;;;;;7.60;4.80;;;;;;;;;;106919;1254;61212;-79
2023/07/21 06:39:43;;;;;;;6.60;4.40;;;;;;;;;;106926;1253;61227;-78
2023/07/21 06:42:09;;;;;;;7.20;4.10;;;;;;;;;;106937;1254;61208;-78
2023/07/21 06:44:36;;;;;;;7.10;4.40;;;;;;;;;;107088;1254;61325;-78
2023/07/21 06:47:02;;;;;;;7.50;4.20;;;;;;;;;;107042;1249;61396;-78
2023/07/21 06:49:29;;;;;;;5.50;4.10;;;;;;;;;;107083;1254;62409;-78
2023/07/21 06:51:55;;;;;;;7.80;4.20;;;;;;;;;;106987;1253;61265;-78
2023/07/21 06:54:23;;;;;;;12.50;4.30;;;;;;;;;;107097;1254;61291;-79
2023/07/21 06:56:50;;;;;;;9.70;5.00;;;;;;;;;;107093;1256;61223;-79
2023/07/21 06:59:16;;;;;;;5.50;4.20;;;;;;;;;;107070;1254;61233;-79
2023/07/21 07:01:43;;;;;;;7.70;4.90;;;;;;;;;;107122;1256;62089;-79
2023/07/21 07:04:09;;;;;;;8.10;4.80;;;;;;;;;;107137;1253;61334;-79
2023/07/21 07:06:35;;;;;;;10.70;4.60;;;;;;;;;;107074;1253;61267;-79
2023/07/21 07:09:02;;;;;;;9.50;5.30;;;;;;;;;;106940;1254;210503;-79
2023/07/21 07:11:29;;;;;;;9.90;5.10;;;;;;;;;;106945;1249;61224;-79
2023/07/21 07:13:55;;;;;;;9.00;5.40;;;;;;;;;;107154;1254;61216;-78
2023/07/21 07:16:22;;;;;;;10.80;5.20;;;;;;;;;;107028;1250;61252;-78
2023/07/21 07:18:48;;;;;;;8.00;5.30;;;;;;;;;;106965;1253;61140;-78
2023/07/21 07:21:15;;;;;;;10.20;5.80;;;;;;;;;;106924;1254;61242;-79
2023/07/21 07:23:41;;;;;;;8.00;4.40;;;;;;;;;;107080;1254;61392;-79
2023/07/21 07:26:07;;;;;;;8.00;4.30;;;;;;;;;;107662;1250;61315;-79
2023/07/21 07:28:34;;;;;;;5.20;4.00;;;;;;;;;;108123;1254;61272;-79
2023/07/21 07:31:04;;;;;;;8.20;3.90;;;;;;;;;;107772;1253;61199;-79
2023/07/21 07:33:31;;;;;;;8.70;3.80;;;;;;;;;;107655;1253;60963;-79
2023/07/21 07:35:59;;;;;;;6.50;4.10;;;;;;;;;;107799;1251;59175;-79
2023/07/21 07:38:27;;;;;;;7.20;3.70;;;;;;;;;;107679;1255;61199;-79
2023/07/21 07:40:53;;;;;;;13.90;5.00;;;;;;;;;;107595;1251;61226;-80
2023/07/21 07:43:19;;;;;;;7.70;4.10;;;;;;;;;;107580;1254;62315;-79
2023/07/21 07:45:46;;;;;;;6.10;4.60;;;;;;;;;;107710;1251;61318;-79
2023/07/21 07:48:14;;;;;;;10.00;5.20;;;;;;;;;;107787;1253;61333;-79
2023/07/21 07:50:40;;;;;;;10.40;6.00;;;;;;;;;;107865;1255;61215;-79
2023/07/21 07:53:07;;;;;;;7.60;4.60;;;;;;;;;;107716;1250;61130;-79
2023/07/21 07:55:40;;;;;;;5.30;3.20;;;;;;;;;;108092;1253;59699;-79
2023/07/21 07:58:07;;;;;;;5.30;3.10;;;;;;;;;;107874;1255;61239;-79
2023/07/21 08:00:37;;;;;;;6.60;2.60;;;;;;;;;;107757;1251;61234;-79
2023/07/21 08:03:04;;;;;;;8.30;2.90;;;;;;;;;;107699;1250;62294;-79
2023/07/21 08:05:37;;;;;;;4.00;2.50;;;;;;;;;;107760;1256;61337;-79
2023/07/21 08:08:04;;;;;;;5.40;2.20;;;;;;;;;;107648;1251;61104;-79
2023/07/21 08:10:30;;;;;;;4.50;2.10;;;;;;;;;;107704;1254;61238;-79
2023/07/21 08:12:58;;;;;;;4.40;2.30;;;;;;;;;;107659;1254;59271;-80
2023/07/21 08:15:25;;;;;;;4.00;2.20;;;;;;;;;;107818;1253;61331;-80
2023/07/21 08:17:52;;;;;;;6.40;2.10;;;;;;;;;;107700;1254;61227;-80
2023/07/21 08:20:18;;;;;;;2.70;1.70;;;;;;;;;;107858;1253;62212;-79
2023/07/21 08:22:48;;;;;;;3.20;2.10;;;;;;;;;;107914;1251;59962;-79
2023/07/21 08:25:15;;;;;;;4.20;2.10;;;;;;;;;;108079;1251;61291;-79
2023/07/21 08:27:41;;;;;;;2.80;1.80;;;;;;;;;;107783;1251;59231;-80
2023/07/21 08:30:08;;;;;;;3.20;1.90;;;;;;;;;;107731;1254;61234;-80
2023/07/21 08:32:38;;;;;;;8.70;2.60;;;;;;;;;;107707;1255;61800;-80
2023/07/21 08:35:05;;;;;;;3.30;2.40;;;;;;;;;;107864;1253;61543;-80
2023/07/21 08:37:32;;;;;;;3.80;2.80;;;;;;;;;;107571;1254;61225;-80
2023/07/21 08:39:58;;;;;;;3.70;2.00;;;;;;;;;;107537;1253;61257;-79
2023/07/21 08:42:25;;;;;;;3.20;1.90;;;;;;;;;;107627;1251;59425;-80
2023/07/21 08:44:52;;;;;;;4.20;1.90;;;;;;;;;;108003;1253;61151;-80
2023/07/21 08:47:19;;;;;;;2.20;1.60;;;;;;;;;;109110;1253;61140;-80
2023/07/21 08:49:46;;;;;;;5.80;1.80;;;;;;;;;;107752;1251;61222;-80
2023/07/21 08:52:12;;;;;;;3.80;1.60;;;;;;;;;;107740;1251;59901;-80
2023/07/21 08:54:39;;;;;;;4.50;2.10;;;;;;;;;;107917;1251;61307;-80
2023/07/21 08:57:05;;;;;;;4.80;2.20;;;;;;;;;;107706;1254;61334;-80
2023/07/21 08:59:32;;;;;;;2.20;1.90;;;;;;;;;;107636;1250;61292;-80
2023/07/21 09:01:58;;;;;;;2.70;1.60;;;;;;;;;;107501;1251;61281;-80
2023/07/21 09:04:25;;;;;;;2.10;1.70;;;;;;;;;;107725;1251;61337;-80
2023/07/21 09:06:56;;;;;;;3.00;2.20;;;;;;;;;;107600;1251;59446;-79
2023/07/21 09:09:24;;;;;;;2.80;1.40;;;;;;;;;;107640;1249;61113;-80
2023/07/21 09:11:50;;;;;;;4.20;1.80;;;;;;;;;;107665;1253;61122;-81
2023/07/21 09:14:17;;;;;;;4.30;1.90;;;;;;;;;;107646;1251;61220;-80
2023/07/21 09:16:43;;;;;;;3.30;3.00;;;;;;;;;;107692;1253;61214;-80
2023/07/21 09:19:10;;;;;;;2.50;1.80;;;;;;;;;;107585;1254;61435;-80
2023/07/21 09:21:37;;;;;;;2.20;1.80;;;;;;;;;;107558;1251;61114;-80
2023/07/21 09:24:04;;;;;;;3.70;1.90;;;;;;;;;;107700;1253;60256;-80
2023/07/21 09:26:31;;;;;;;5.90;3.00;;;;;;;;;;107706;1251;61190;-80
2023/07/21 09:28:57;;;;;;;3.30;2.40;;;;;;;;;;107633;1250;61250;-80
2023/07/21 09:31:31;;;;;;;5.40;2.30;;;;;;;;;;107583;1250;59877;-80
2023/07/21 09:34:04;;;;;;;4.20;2.20;;;;;;;;;;107797;1253;61124;-80
2023/07/21 09:36:30;;;;;;;3.30;2.20;;;;;;;;;;107587;1254;61067;-81
2023/07/21 09:38:57;;;;;;;7.50;2.00;;;;;;;;;;107636;1250;61247;-80
2023/07/21 09:41:26;;;;;;;5.80;2.60;;;;;;;;;;107803;1251;61191;-80
2023/07/21 09:43:53;;;;;;;6.90;2.40;;;;;;;;;;107632;1251;61315;-80
2023/07/21 09:46:19;;;;;;;6.00;2.40;;;;;;;;;;107594;1251;61098;-80
2023/07/21 09:48:47;;;;;;;3.40;2.20;;;;;;;;;;107613;1250;61233;-80
2023/07/21 09:51:13;;;;;;;4.80;2.30;;;;;;;;;;107661;1251;61213;-80
2023/07/21 09:53:40;;;;;;;5.20;2.20;;;;;;;;;;107619;1251;61329;-80
2023/07/21 09:56:07;;;;;;;5.50;2.00;;;;;;;;;;107615;1254;61244;-79
2023/07/21 09:58:34;;;;;;;3.20;2.30;;;;;;;;;;107583;1251;59461;-80
2023/07/21 10:01:02;;;;;;;3.10;1.90;;;;;;;;;;107617;1250;61248;-79
2023/07/21 10:03:32;;;;;;;2.70;1.90;;;;;;;;;;107736;1251;59421;-79
2023/07/21 10:05:59;;;;;;;3.50;2.80;;;;;;;;;;107705;1251;59535;-79
2023/07/21 10:08:33;;;;;;;8.40;2.20;;;;;;;;;;107725;1253;61909;-79
2023/07/21 10:11:00;;;;;;;3.20;1.90;;;;;;;;;;107646;1251;61217;-79
2023/07/21 10:13:27;;;;;;;3.10;2.00;;;;;;;;;;107679;1251;61228;-79
2023/07/21 10:16:00;;;;;;;3.00;2.40;;;;;;;;;;107837;1250;61155;-79
2023/07/21 10:18:27;;;;;;;3.40;2.50;;;;;;;;;;107593;1251;61333;-79
2023/07/21 10:20:54;;;;;;;5.20;2.00;;;;;;;;;;107638;1251;61276;-79
2023/07/21 10:23:34;;;;;;;3.10;2.60;;;;;;;;;;107679;1251;61116;-79
2023/07/21 10:26:01;;;;;;;4.10;2.20;;;;;;;;;;107699;1250;61325;-79
2023/07/21 10:28:31;;;;;;;5.00;2.50;;;;;;;;;;107692;1254;62262;-79
2023/07/21 10:31:16;;;;;;;7.70;2.90;;;;;;;;;;107538;1253;61344;-79
2023/07/21 10:33:47;;;;;;;3.00;2.10;;;;;;;;;;107629;1251;60790;-80
2023/07/21 10:36:17;;;;;;;5.00;2.30;;;;;;;;;;107775;1251;61246;-80
2023/07/21 10:38:44;;;;;;;3.70;2.60;;;;;;;;;;107784;1251;61556;-80
2023/07/21 10:41:10;;;;;;;4.00;2.60;;;;;;;;;;107569;1249;59232;-79
2023/07/21 10:43:36;;;;;;;5.90;2.50;;;;;;;;;;107923;1251;61212;-80
2023/07/21 10:46:04;;;;;;;5.30;3.60;;;;;;;;;;107834;1251;61135;-80
2023/07/21 10:48:31;;;;;;;6.10;2.90;;;;;;;;;;107758;1251;61235;-79
2023/07/21 10:51:00;;;;;;;4.00;2.40;;;;;;;;;;107837;1251;61224;-79
2023/07/21 10:53:27;;;;;;;6.50;2.50;;;;;;;;;;107738;1251;61204;-80
2023/07/21 10:55:54;;;;;;;3.90;2.90;;;;;;;;;;108434;1251;61235;-79
2023/07/21 10:58:20;;;;;;;2.40;2.10;;;;;;;;;;107212;1249;61237;-78
2023/07/21 11:00:47;;;;;;;2.80;2.30;;;;;;;;;;107133;1254;59842;-78
2023/07/21 11:03:13;;;;;;;3.60;2.50;;;;;;;;;;107137;1251;61224;-78
2023/07/21 11:05:40;;;;;;;2.30;1.80;;;;;;;;;;107340;1251;61273;-78
2023/07/21 11:08:09;;;;;;;2.70;1.90;;;;;;;;;;107177;1251;61391;-78
2023/07/21 11:10:36;;;;;;;4.40;1.90;;;;;;;;;;107149;1251;61256;-78
2023/07/21 11:13:02;;;;;;;4.90;2.30;;;;;;;;;;107097;1253;61244;-78
2023/07/21 11:15:29;;;;;;;3.90;2.20;;;;;;;;;;107155;1251;61211;-78
2023/07/21 11:18:02;;;;;;;4.60;2.10;;;;;;;;;;107060;1251;61383;-78
2023/07/21 11:20:28;;;;;;;3.50;2.40;;;;;;;;;;107099;1251;61200;-78
2023/07/21 11:22:55;;;;;;;4.90;2.50;;;;;;;;;;107002;1251;61338;-78
2023/07/21 11:25:21;;;;;;;3.30;2.30;;;;;;;;;;107063;1249;61356;-79
2023/07/21 11:27:48;;;;;;;5.50;2.90;;;;;;;;;;106965;1251;61364;-79
2023/07/21 11:30:15;;;;;;;4.00;2.70;;;;;;;;;;106998;1251;61164;-78
2023/07/21 11:32:42;;;;;;;4.80;2.30;;;;;;;;;;107901;1249;61235;-79
2023/07/21 11:35:08;;;;;;;3.70;2.60;;;;;;;;;;106982;1251;61249;-78
2023/07/21 11:37:38;;;;;;;4.20;2.40;;;;;;;;;;106916;1250;61196;-79
2023/07/21 11:40:10;;;;;;;3.60;2.40;;;;;;;;;;107148;1254;60816;-79
2023/07/21 11:42:46;;;;;;;6.00;2.90;;;;;;;;;;106987;1254;61352;-78
2023/07/21 11:45:32;;;;;;;5.70;3.70;;;;;;;;;;107099;1251;61257;-79
2023/07/21 11:48:00;;;;;;;4.20;3.10;;;;;;;;;;107077;1251;61360;-79
2023/07/21 11:50:28;;;;;;;4.70;3.30;;;;;;;;;;106965;1250;61261;-79
2023/07/21 11:52:54;;;;;;;4.30;2.90;;;;;;;;;;107024;1250;61111;-80
2023/07/21 11:55:20;;;;;;;4.40;2.30;;;;;;;;;;107816;1250;61135;-79
2023/07/21 11:57:47;;;;;;;4.70;2.70;;;;;;;;;;107592;1250;61149;-79
2023/07/21 12:00:14;;;;;;;6.90;2.80;;;;;;;;;;107611;1253;61308;-79
2023/07/21 12:02:41;;;;;;;3.30;2.00;;;;;;;;;;107698;1250;61230;-79
2023/07/21 12:05:09;;;;;;;5.80;3.00;;;;;;;;;;107997;1249;61184;-79
2023/07/21 12:07:35;;;;;;;5.20;2.10;;;;;;;;;;107619;1251;61396;-79
2023/07/21 12:10:02;;;;;;;4.70;2.70;;;;;;;;;;107738;1249;61129;-79
2023/07/21 12:12:28;;;;;;;7.50;2.90;;;;;;;;;;107710;1249;61363;-79
2023/07/21 12:14:55;;;;;;;4.40;2.80;;;;;;;;;;107843;1250;61155;-79
2023/07/21 12:17:23;;;;;;;5.90;2.20;;;;;;;;;;107708;1249;61269;-79
2023/07/21 12:19:49;;;;;;;3.80;2.50;;;;;;;;;;107712;1254;61292;-79
2023/07/21 12:22:15;;;;;;;5.90;2.50;;;;;;;;;;107637;1250;61368;-79
2023/07/21 12:24:42;;;;;;;3.80;2.90;;;;;;;;;;107740;1251;61339;-80
2023/07/21 12:27:09;;;;;;;4.30;2.80;;;;;;;;;;107664;1252;61218;-79
2023/07/21 12:29:35;;;;;;;4.20;2.80;;;;;;;;;;107670;1250;61243;-79
2023/07/21 12:32:02;;;;;;;4.50;3.70;;;;;;;;;;107659;1249;61221;-79
2023/07/21 12:34:28;;;;;;;3.80;2.80;;;;;;;;;;107803;1250;61250;-79
2023/07/21 12:36:54;;;;;;;5.20;2.80;;;;;;;;;;107704;1251;61159;-79
2023/07/21 12:39:22;;;;;;;4.50;2.70;;;;;;;;;;107682;1253;61251;-79
2023/07/21 12:41:48;;;;;;;6.00;2.90;;;;;;;;;;107885;1249;61207;-79
2023/07/21 12:44:14;;;;;;;6.50;3.40;;;;;;;;;;107770;1250;59298;-79
2023/07/21 12:46:41;;;;;;;5.50;3.10;;;;;;;;;;107769;1250;61097;-79
2023/07/21 12:49:07;;;;;;;5.90;2.90;;;;;;;;;;107707;1253;61154;-79
2023/07/21 12:51:34;;;;;;;3.90;2.40;;;;;;;;;;107856;1250;59145;-79
2023/07/21 12:54:00;;;;;;;10.20;3.00;;;;;;;;;;107757;1252;61290;-79
2023/07/21 12:56:27;;;;;;;5.30;2.50;;;;;;;;;;107909;1250;61349;-79
2023/07/21 12:58:53;;;;;;;4.40;2.70;;;;;;;;;;107618;1250;61292;-79
2023/07/21 13:01:20;;;;;;;6.00;3.20;;;;;;;;;;107856;1250;61212;-79
2023/07/21 13:03:46;;;;;;;8.40;4.10;;;;;;;;;;107864;1249;61206;-79
2023/07/21 13:06:13;;;;;;;3.10;2.30;;;;;;;;;;107993;1250;59288;-79
2023/07/21 13:08:39;;;;;;;6.00;2.80;;;;;;;;;;107090;1253;61420;-78
2023/07/21 13:11:05;;;;;;;3.80;2.80;;;;;;;;;;107086;1250;61333;-78
2023/07/21 13:13:32;;;;;;;3.10;2.10;;;;;;;;;;107100;1249;61256;-79
2023/07/21 13:15:58;;;;;;;3.00;2.60;;;;;;;;;;107098;1249;59556;-79
2023/07/21 13:18:25;;;;;;;4.90;3.00;;;;;;;;;;107029;1253;61331;-78
2023/07/21 13:20:51;;;;;;;15.70;10.40;;;;;;;;;;107131;1253;61448;-78
2023/07/21 13:23:17;;;;;;;5.60;4.30;;;;;;;;;;107060;1250;61280;-79
2023/07/21 13:25:44;;;;;;;8.80;5.20;;;;;;;;;;107209;1249;61245;-79
2023/07/21 13:28:10;;;;;;;9.10;3.70;;;;;;;;;;107049;1250;61449;-78
2023/07/21 13:30:36;;;;;;;6.00;3.20;;;;;;;;;;106962;1251;61343;-79
2023/07/21 13:33:03;;;;;;;5.00;3.30;;;;;;;;;;107074;1249;61339;-79
2023/07/21 13:35:29;;;;;;;4.80;2.50;;;;;;;;;;107062;1250;61386;-79
2023/07/21 13:37:55;;;;;;;5.80;2.80;;;;;;;;;;107671;1250;61344;-79
2023/07/21 13:40:22;;;;;;;6.20;3.50;;;;;;;;;;107636;1250;61338;-78
2023/07/21 13:42:48;;;;;;;4.50;2.90;;;;;;;;;;107647;1250;61561;-79
2023/07/21 13:45:15;;;;;;;7.00;3.30;;;;;;;;;;108218;1250;61214;-79
2023/07/21 13:47:41;;;;;;;6.00;2.80;;;;;;;;;;107794;1250;61244;-80
2023/07/21 13:50:09;;;;;;;3.90;2.60;;;;;;;;;;107744;1249;61248;-79
2023/07/21 13:52:36;;;;;;;3.80;2.50;;;;;;;;;;107740;1248;61245;-79
2023/07/21 13:55:03;;;;;;;5.40;2.80;;;;;;;;;;107776;1250;61388;-79
2023/07/21 13:57:29;;;;;;;3.60;2.30;;;;;;;;;;107624;1250;59698;-79
2023/07/21 13:59:55;;;;;;;3.30;2.40;;;;;;;;;;107649;1250;61236;-79
2023/07/21 14:02:22;;;;;;;3.30;2.40;;;;;;;;;;107697;1249;61331;-79
2023/07/21 14:04:48;;;;;;;4.00;2.70;;;;;;;;;;107784;1250;61151;-79
2023/07/21 14:07:15;;;;;;;6.40;4.00;;;;;;;;;;107755;1253;59760;-79
2023/07/21 14:09:42;;;;;;;16.00;7.80;;;;;;;;;;107668;1249;61263;-79
2023/07/21 14:12:09;;;;;;;9.00;4.70;;;;;;;;;;107907;1249;59444;-79
2023/07/21 14:14:35;;;;;;;6.80;3.50;;;;;;;;;;109834;1249;58869;-80
2023/07/21 14:17:02;;;;;;;4.10;2.60;;;;;;;;;;108015;1253;61121;-79
2023/07/21 14:19:28;;;;;;;5.10;2.60;;;;;;;;;;107822;1249;61245;-79
2023/07/21 14:21:55;;;;;;;5.60;3.80;;;;;;;;;;107792;1254;59526;-79
2023/07/21 14:24:21;;;;;;;5.70;2.70;;;;;;;;;;107705;1250;60149;-79
2023/07/21 14:26:48;;;;;;;5.60;2.80;;;;;;;;;;107536;1250;61293;-79